Time;durP1;ratioP1;P1;durP2;ratioP2;P2;SDS_P1;SDS_P2;PMS_P1;PMS_P2;Temp;Humidity;BMP_temperature;BMP_pressure;BME280_temperature;BME280_humidity;BME280_pressure;Samples;Min_cycle;Max_cycle;Signal;HPM_P1;HPM_P2
2022/05/02 00:02:19;;;;;;;20.37;15.37;;;4.90;99.90;;;;;;5040259;28;20220;-79
2022/05/02 00:04:45;;;;;;;22.17;16.80;;;4.90;99.90;;;;;;5039018;28;20696;-79
2022/05/02 00:07:11;;;;;;;23.93;17.33;;;4.90;99.90;;;;;;5037959;28;20186;-78
2022/05/02 00:09:36;;;;;;;23.33;16.40;;;4.90;99.90;;;;;;5039308;28;20671;-78
2022/05/02 00:12:03;;;;;;;24.97;15.73;;;5.10;99.90;;;;;;5039306;28;20280;-78
2022/05/02 00:14:28;;;;;;;21.83;15.57;;;4.80;99.90;;;;;;5039629;28;20574;-79
2022/05/02 00:16:54;;;;;;;25.07;15.53;;;4.90;99.90;;;;;;5039530;28;20456;-79
2022/05/02 00:19:19;;;;;;;19.43;14.83;;;4.80;99.90;;;;;;5038557;28;20297;-79
2022/05/02 00:21:45;;;;;;;23.33;15.30;;;4.80;99.90;;;;;;5038520;28;20196;-78
2022/05/02 00:24:11;;;;;;;19.83;14.90;;;4.70;99.90;;;;;;5038849;28;20174;-78
2022/05/02 00:26:36;;;;;;;22.13;14.33;;;4.60;99.90;;;;;;5038757;28;20181;-78
2022/05/02 00:29:02;;;;;;;19.23;14.00;;;4.40;99.90;;;;;;5039495;28;20186;-78
2022/05/02 00:31:28;;;;;;;18.70;14.77;;;4.50;99.90;;;;;;5037853;28;20253;-78
2022/05/02 00:33:53;;;;;;;18.90;12.97;;;4.40;99.90;;;;;;5037932;28;20196;-79
2022/05/02 00:36:19;;;;;;;17.90;13.37;;;4.40;99.90;;;;;;5039015;28;20174;-78
2022/05/02 00:38:45;;;;;;;17.83;14.03;;;4.40;99.90;;;;;;5036718;28;20205;-79
2022/05/02 00:41:11;;;;;;;20.07;15.13;;;4.30;99.90;;;;;;5037925;28;20171;-78
2022/05/02 00:43:39;;;;;;;19.47;13.57;;;4.30;99.90;;;;;;5037861;28;20174;-78
2022/05/02 00:46:20;;;;;;;18.47;13.40;;;4.30;99.90;;;;;;5037032;28;20405;-78
2022/05/02 00:48:46;;;;;;;19.07;14.77;;;4.30;99.90;;;;;;5037096;28;20452;-78
2022/05/02 00:51:13;;;;;;;21.30;15.20;;;4.30;99.90;;;;;;5036109;28;20419;-78
2022/05/02 00:53:39;;;;;;;19.60;14.43;;;4.30;99.90;;;;;;5036515;28;20440;-78
2022/05/02 00:56:06;;;;;;;25.23;14.87;;;4.30;99.90;;;;;;5036246;28;20412;-78
2022/05/02 00:58:35;;;;;;;20.80;14.80;;;4.30;99.90;;;;;;5037817;28;20401;-78
2022/05/02 01:01:02;;;;;;;20.60;15.20;;;4.30;99.90;;;;;;5036130;28;20797;-78
2022/05/02 01:03:28;;;;;;;20.77;14.60;;;4.30;99.90;;;;;;5036559;28;20486;-79
2022/05/02 01:08:38;;;;;;;19.33;14.10;;;4.20;99.90;;;;;;5037290;28;20166;-79
2022/05/02 01:11:04;;;;;;;20.10;14.87;;;4.10;99.90;;;;;;5035865;28;20425;-78
2022/05/02 01:13:39;;;;;;;19.97;14.43;;;4.10;99.90;;;;;;5037180;28;20190;-79
2022/05/02 01:16:19;;;;;;;19.73;13.57;;;4.10;99.90;;;;;;5037971;28;20666;-78
2022/05/02 01:18:47;;;;;;;20.17;14.90;;;4.10;99.90;;;;;;5037358;28;20743;-79
2022/05/02 01:21:14;;;;;;;21.43;15.13;;;4.10;99.90;;;;;;5036690;28;20520;-78
2022/05/02 01:23:44;;;;;;;18.33;13.90;;;4.10;99.90;;;;;;5037282;28;20462;-78
2022/05/02 01:26:11;;;;;;;21.23;14.13;;;4.10;99.90;;;;;;5036431;28;20451;-79
2022/05/02 01:28:41;;;;;;;17.60;14.00;;;4.10;99.90;;;;;;5037285;28;20761;-79
2022/05/02 01:31:06;;;;;;;18.30;13.13;;;4.00;99.90;;;;;;5036749;28;20992;-78
2022/05/02 01:33:34;;;;;;;17.33;12.37;;;4.00;99.90;;;;;;5035562;28;20417;-79
2022/05/02 01:36:00;;;;;;;20.43;13.97;;;4.00;99.90;;;;;;5035522;28;20174;-79
2022/05/02 01:38:25;;;;;;;16.03;12.57;;;4.00;99.90;;;;;;5036646;28;20436;-79
2022/05/02 01:40:51;;;;;;;16.57;12.20;;;3.90;99.90;;;;;;5036134;28;20194;-78
2022/05/02 01:43:17;;;;;;;16.87;11.87;;;3.90;99.90;;;;;;5036288;28;20216;-78
2022/05/02 01:45:42;;;;;;;17.23;12.43;;;3.80;99.90;;;;;;5035539;28;20629;-78
2022/05/02 01:48:08;;;;;;;16.87;11.80;;;3.80;99.90;;;;;;5036136;28;20174;-78
2022/05/02 01:50:34;;;;;;;17.07;12.70;;;3.80;99.90;;;;;;5034439;28;20182;-78
2022/05/02 01:52:59;;;;;;;15.77;12.13;;;3.70;99.90;;;;;;5034397;28;20564;-80
2022/05/02 01:55:25;;;;;;;16.80;11.87;;;3.70;99.90;;;;;;5035981;28;20174;-79
2022/05/02 01:57:50;;;;;;;16.93;13.17;;;3.60;99.90;;;;;;5035860;28;20170;-78
2022/05/02 02:00:16;;;;;;;19.37;13.60;;;3.70;99.90;;;;;;5032875;28;20676;-78
2022/05/02 02:02:42;;;;;;;18.03;13.70;;;3.70;99.90;;;;;;5034388;28;20190;-78
2022/05/02 02:07:52;;;;;;;19.03;13.47;;;3.60;99.90;;;;;;5034447;28;20165;-78
2022/05/02 02:10:17;;;;;;;20.80;13.70;;;3.60;99.90;;;;;;5033967;28;20413;-78
2022/05/02 02:12:43;;;;;;;18.03;12.57;;;3.60;99.90;;;;;;5032988;28;20202;-78
2022/05/02 02:15:14;;;;;;;17.80;13.07;;;3.60;99.90;;;;;;5034169;28;20174;-78
2022/05/02 02:17:42;;;;;;;19.07;14.23;;;3.60;99.90;;;;;;5033090;28;20188;-78
2022/05/02 02:20:09;;;;;;;18.90;12.97;;;3.60;99.90;;;;;;5033858;28;20459;-78
2022/05/02 02:22:36;;;;;;;18.13;12.53;;;3.60;99.90;;;;;;5033896;28;20490;-78
2022/05/02 02:25:03;;;;;;;18.13;12.37;;;3.50;99.90;;;;;;5032842;28;20409;-78
2022/05/02 02:27:29;;;;;;;17.90;13.37;;;3.50;99.90;;;;;;5040701;28;20500;-78
2022/05/02 02:29:54;;;;;;;18.77;13.63;;;3.50;99.90;;;;;;5045433;28;20778;-78
2022/05/02 02:32:20;;;;;;;19.47;12.83;;;3.50;99.90;;;;;;5046946;28;20202;-79
2022/05/02 02:34:46;;;;;;;19.07;13.30;;;3.50;99.90;;;;;;5045643;28;20232;-79
2022/05/02 02:37:11;;;;;;;19.93;14.23;;;3.50;99.90;;;;;;5039113;28;20178;-79
2022/05/02 02:39:37;;;;;;;18.80;14.43;;;3.50;99.90;;;;;;5035214;28;20206;-78
2022/05/02 02:42:03;;;;;;;18.57;12.67;;;3.50;99.90;;;;;;5035188;28;20210;-78
2022/05/02 02:44:29;;;;;;;18.60;14.03;;;3.40;99.90;;;;;;5034988;28;20196;-78
2022/05/02 02:46:54;;;;;;;18.00;12.93;;;3.40;99.90;;;;;;5034565;28;20591;-78
2022/05/02 02:49:20;;;;;;;17.50;12.23;;;3.30;99.90;;;;;;5034814;28;20522;-78
2022/05/02 02:51:45;;;;;;;15.90;11.67;;;3.30;99.90;;;;;;5034578;28;20226;-78
2022/05/02 02:54:12;;;;;;;18.27;12.97;;;3.40;99.90;;;;;;5033619;28;20182;-78
2022/05/02 02:56:37;;;;;;;20.43;11.83;;;3.20;99.90;;;;;;5036390;28;20644;-78
2022/05/02 02:59:03;;;;;;;17.77;12.90;;;3.20;99.90;;;;;;5038745;28;20496;-78
2022/05/02 03:01:29;;;;;;;14.90;11.40;;;3.30;99.90;;;;;;5037426;28;20556;-78
2022/05/02 03:03:55;;;;;;;16.17;12.03;;;3.40;99.90;;;;;;5038835;28;20170;-78
2022/05/02 03:06:21;;;;;;;16.63;12.57;;;3.20;99.90;;;;;;5038775;28;20467;-78
2022/05/02 03:08:47;;;;;;;16.73;12.33;;;3.20;99.90;;;;;;5038970;28;20798;-78
2022/05/02 03:11:13;;;;;;;17.70;12.00;;;3.30;99.90;;;;;;5038396;28;20194;-78
2022/05/02 03:13:39;;;;;;;19.20;13.43;;;3.30;99.90;;;;;;5039072;28;20416;-78
2022/05/02 03:16:05;;;;;;;17.77;12.63;;;3.20;99.90;;;;;;5038676;28;20413;-78
2022/05/02 03:18:31;;;;;;;21.37;13.37;;;3.30;99.90;;;;;;5037021;28;20189;-78
2022/05/02 03:20:57;;;;;;;20.93;12.97;;;3.20;99.90;;;;;;5036841;28;20463;-78
2022/05/02 03:23:23;;;;;;;16.20;12.40;;;3.30;99.90;;;;;;5037156;28;20428;-78
2022/05/02 03:25:49;;;;;;;16.47;12.60;;;3.30;99.90;;;;;;5038281;28;20190;-78
2022/05/02 03:28:15;;;;;;;23.77;14.33;;;3.30;99.90;;;;;;5038125;28;20174;-78
2022/05/02 03:30:41;;;;;;;18.00;13.10;;;3.20;99.90;;;;;;5038025;28;20197;-78
2022/05/02 03:33:07;;;;;;;15.93;11.93;;;3.20;99.90;;;;;;5036567;28;20444;-78
2022/05/02 03:35:32;;;;;;;16.07;11.57;;;3.20;99.90;;;;;;5036778;28;20182;-78
2022/05/02 03:37:58;;;;;;;18.17;11.50;;;3.40;99.90;;;;;;5039981;28;20232;-78
2022/05/02 03:40:24;;;;;;;16.83;11.93;;;3.30;99.90;;;;;;5041184;28;20316;-78
2022/05/02 03:42:50;;;;;;;18.13;12.80;;;3.20;99.90;;;;;;5036211;28;20655;-78
2022/05/02 03:45:15;;;;;;;15.90;11.00;;;3.10;99.90;;;;;;5038020;28;20224;-78
2022/05/02 03:47:41;;;;;;;19.67;11.77;;;3.40;99.90;;;;;;5036205;28;20186;-78
2022/05/02 03:50:07;;;;;;;16.67;11.83;;;3.10;99.90;;;;;;5037929;28;20185;-78
2022/05/02 03:52:33;;;;;;;17.13;11.37;;;3.10;99.90;;;;;;5037818;28;20733;-78
2022/05/02 03:54:58;;;;;;;14.30;11.20;;;3.10;99.90;;;;;;5037293;28;20421;-78
2022/05/02 03:57:24;;;;;;;17.87;11.17;;;3.00;99.90;;;;;;5036411;28;20211;-78
2022/05/02 03:59:50;;;;;;;17.37;11.53;;;3.10;99.90;;;;;;5037280;28;20202;-77
2022/05/02 04:02:16;;;;;;;17.37;11.33;;;3.10;99.90;;;;;;5037775;28;20331;-78
2022/05/02 04:04:42;;;;;;;19.53;13.00;;;3.00;99.90;;;;;;5037981;28;20685;-78
2022/05/02 04:07:07;;;;;;;22.00;14.43;;;3.10;99.90;;;;;;5036667;28;20405;-78
2022/05/02 04:09:33;;;;;;;21.87;14.43;;;3.00;99.90;;;;;;5036239;28;20188;-78
2022/05/02 04:11:59;;;;;;;19.83;13.00;;;2.90;99.90;;;;;;5036331;28;20591;-78
2022/05/02 04:14:24;;;;;;;16.23;11.73;;;2.90;99.90;;;;;;5037379;28;20178;-78
2022/05/02 04:16:50;;;;;;;13.13;9.43;;;3.00;99.90;;;;;;5037289;28;20181;-78
2022/05/02 04:19:16;;;;;;;14.47;10.27;;;2.90;99.90;;;;;;5037451;28;20201;-77
2022/05/02 04:21:42;;;;;;;17.77;10.20;;;2.80;99.90;;;;;;5037676;28;20193;-78
2022/05/02 04:24:08;;;;;;;14.17;10.57;;;;;;;;;;5036502;28;20421;-78
2022/05/02 04:26:35;;;;;;;12.80;10.17;;;2.80;99.90;;;;;;5036205;28;20420;-78
2022/05/02 04:29:01;;;;;;;14.40;10.90;;;3.20;99.90;;;;;;5037828;28;20216;-78
2022/05/02 04:31:26;;;;;;;14.13;9.60;;;2.90;99.90;;;;;;5037414;28;20547;-78
2022/05/02 04:33:52;;;;;;;13.23;10.23;;;2.90;99.90;;;;;;5037609;28;20441;-78
2022/05/02 04:36:18;;;;;;;12.33;9.33;;;3.10;99.90;;;;;;5037464;28;20178;-78
2022/05/02 04:38:44;;;;;;;12.10;9.73;;;2.80;99.90;;;;;;5036802;28;20204;-78
2022/05/02 04:41:13;;;;;;;12.10;8.80;;;2.80;99.90;;;;;;5037286;28;20185;-79
2022/05/02 04:43:41;;;;;;;12.93;8.87;;;;;;;;;;5037688;28;20178;-78
2022/05/02 04:46:09;;;;;;;10.87;8.90;;;2.80;99.90;;;;;;5037494;28;20401;-78
2022/05/02 04:48:35;;;;;;;16.97;9.30;;;2.80;99.90;;;;;;5037435;28;20481;-78
2022/05/02 04:51:00;;;;;;;12.20;9.07;;;2.80;99.90;;;;;;5036987;28;20488;-78
2022/05/02 04:53:26;;;;;;;10.97;8.83;;;2.80;99.90;;;;;;5037030;28;20186;-78
2022/05/02 04:55:52;;;;;;;11.67;8.93;;;2.80;99.90;;;;;;5036929;28;20194;-78
2022/05/02 04:58:17;;;;;;;11.90;9.17;;;2.90;99.90;;;;;;5036688;28;20170;-79
2022/05/02 05:00:43;;;;;;;12.03;8.70;;;2.90;99.90;;;;;;5036679;28;20181;-78
2022/05/02 05:03:09;;;;;;;12.73;9.40;;;3.10;99.90;;;;;;5036643;28;20190;-79
2022/05/02 05:05:34;;;;;;;12.60;9.50;;;3.00;99.90;;;;;;5036501;28;20182;-79
2022/05/02 05:08:00;;;;;;;10.33;8.03;;;3.20;99.90;;;;;;5036436;28;20179;-78
2022/05/02 05:10:26;;;;;;;11.60;8.33;;;3.10;99.90;;;;;;5036627;28;20194;-78
2022/05/02 05:13:07;;;;;;;11.33;8.97;;;3.10;99.90;;;;;;5037170;28;20664;-79
2022/05/02 05:16:21;;;;;;;12.87;8.63;;;3.20;99.90;;;;;;5037154;28;20253;-78
2022/05/02 05:19:09;;;;;;;9.00;7.37;;;3.40;99.90;;;;;;5035577;28;20382;-78
2022/05/02 05:21:48;;;;;;;11.20;8.20;;;3.50;99.90;;;;;;5036463;28;20425;-78
2022/05/02 05:24:35;;;;;;;11.27;8.73;;;3.50;99.90;;;;;;5036431;28;20749;-78
2022/05/02 05:27:08;;;;;;;9.97;8.30;;;3.70;99.90;;;;;;5047642;28;20449;-79
2022/05/02 05:29:56;;;;;;;10.77;8.13;;;3.70;99.90;;;;;;5049787;28;20457;-78
2022/05/02 05:32:28;;;;;;;10.70;8.63;;;3.90;99.90;;;;;;5052606;28;20424;-79
2022/05/02 05:35:11;;;;;;;12.03;9.47;;;3.90;99.90;;;;;;5036817;28;20462;-78
2022/05/02 05:38:01;;;;;;;11.90;8.57;;;4.00;99.90;;;;;;5034602;28;20448;-79
2022/05/02 05:40:39;;;;;;;11.13;8.67;;;4.00;99.90;;;;;;5030835;28;20448;-78
2022/05/02 05:43:24;;;;;;;13.63;8.13;;;4.30;99.90;;;;;;5036615;28;20452;-78
2022/05/02 05:46:11;;;;;;;12.57;7.73;;;4.20;99.90;;;;;;5037023;28;20397;-79
2022/05/02 05:49:14;;;;;;;13.37;9.93;;;4.40;99.90;;;;;;5037310;28;20423;-79
2022/05/02 05:51:49;;;;;;;13.13;9.57;;;4.50;99.90;;;;;;5050454;28;20443;-78
2022/05/02 05:54:56;;;;;;;12.77;9.97;;;4.70;99.90;;;;;;5043763;28;20385;-79
2022/05/02 05:57:49;;;;;;;14.23;9.33;;;4.90;99.90;;;;;;5046003;28;20492;-79
2022/05/02 06:00:15;;;;;;;10.57;8.40;;;5.00;99.90;;;;;;5047432;28;20417;-79
2022/05/02 06:03:12;;;;;;;10.97;7.93;;;5.30;99.90;;;;;;5050537;28;20425;-80
2022/05/02 06:05:40;;;;;;;9.27;7.70;;;5.50;99.90;;;;;;5048790;28;20405;-79
2022/05/02 06:08:19;;;;;;;9.67;8.17;;;5.60;99.90;;;;;;5047600;28;20496;-79
2022/05/02 06:10:46;;;;;;;10.67;7.53;;;5.70;99.90;;;;;;5039422;28;20455;-79
2022/05/02 06:13:16;;;;;;;10.60;7.13;;;5.90;99.90;;;;;;5042679;28;20431;-79
2022/05/02 06:18:40;;;;;;;9.23;7.00;;;6.10;99.90;;;;;;5041750;28;20815;-79
2022/05/02 06:21:07;;;;;;;8.17;6.30;;;6.20;99.90;;;;;;5040131;28;20417;-79
2022/05/02 06:23:42;;;;;;;8.67;6.40;;;6.20;99.90;;;;;;5039615;28;20463;-79
2022/05/02 06:26:09;;;;;;;9.87;6.43;;;6.30;99.90;;;;;;5040686;28;20428;-80
2022/05/02 06:28:43;;;;;;;8.37;6.77;;;6.50;99.90;;;;;;5040941;28;20413;-79
2022/05/02 06:31:16;;;;;;;8.63;7.43;;;6.70;99.90;;;;;;5040932;28;20475;-79
2022/05/02 06:33:44;;;;;;;8.70;7.00;;;6.70;99.90;;;;;;5039407;28;20405;-79
2022/05/02 06:36:21;;;;;;;8.40;6.57;;;6.90;99.90;;;;;;5040266;28;20171;-79
2022/05/02 06:39:02;;;;;;;10.77;6.83;;;7.00;99.90;;;;;;5039620;28;20186;-79
2022/05/02 06:41:53;;;;;;;7.53;6.33;;;7.30;99.90;;;;;;5040666;28;20738;-79
2022/05/02 06:44:36;;;;;;;9.77;7.10;;;7.40;99.90;;;;;;5039603;28;20421;-79
2022/05/02 06:47:23;;;;;;;10.80;6.90;;;7.60;99.90;;;;;;5038317;28;20158;-79
2022/05/02 06:49:52;;;;;;;10.37;6.80;;;7.80;99.90;;;;;;5036571;28;20457;-79
2022/05/02 06:52:31;;;;;;;12.93;7.03;;;8.00;99.90;;;;;;5036489;28;20198;-79
2022/05/02 06:55:16;;;;;;;7.33;6.53;;;8.20;99.90;;;;;;5038050;28;20514;-79
2022/05/02 06:57:55;;;;;;;11.80;7.67;;;8.30;99.90;;;;;;5037050;28;20155;-79
2022/05/02 07:00:21;;;;;;;9.97;7.03;;;8.40;99.90;;;;;;5034987;28;20158;-79
2022/05/02 07:03:09;;;;;;;11.57;6.93;;;8.50;99.90;;;;;;5035017;28;20544;-79
2022/05/02 07:05:49;;;;;;;8.47;6.83;;;8.70;99.90;;;;;;5043413;28;20190;-79
2022/05/02 07:08:26;;;;;;;9.30;7.83;;;8.90;99.90;;;;;;5039666;28;20206;-80
2022/05/02 07:11:04;;;;;;;11.10;7.70;;;9.30;99.90;;;;;;5040301;28;20239;-80
2022/05/02 07:14:08;;;;;;;11.63;8.53;;;9.60;99.90;;;;;;5040780;28;20202;-80
2022/05/02 07:16:37;;;;;;;9.13;7.83;;;9.80;99.90;;;;;;5041225;28;20163;-80
2022/05/02 07:19:29;;;;;;;9.00;7.23;;;10.10;99.90;;;;;;5039908;28;20201;-80
2022/05/02 07:22:03;;;;;;;11.03;8.07;;;10.30;99.90;;;;;;5041769;28;20193;-79
2022/05/02 07:25:07;;;;;;;10.10;8.83;;;10.50;99.90;;;;;;5041968;28;20212;-80
2022/05/02 07:27:57;;;;;;;12.60;8.43;;;10.60;99.90;;;;;;5041175;28;20497;-80
2022/05/02 07:30:25;;;;;;;10.37;7.90;;;10.80;99.90;;;;;;5041151;28;20228;-80
2022/05/02 07:32:53;;;;;;;11.43;8.77;;;10.90;99.90;;;;;;5039126;28;20195;-80
2022/05/02 07:35:21;;;;;;;12.10;8.87;;;11.00;99.90;;;;;;5040265;28;20228;-80
2022/05/02 07:37:48;;;;;;;9.33;7.43;;;11.20;99.90;;;;;;5040292;28;20561;-80
2022/05/02 07:40:17;;;;;;;11.47;7.90;;;11.40;99.90;;;;;;5038471;28;20284;-80
2022/05/02 07:42:44;;;;;;;8.40;7.03;;;11.70;99.90;;;;;;5041759;28;20193;-79
2022/05/02 07:45:13;;;;;;;10.03;7.43;;;11.90;99.90;;;;;;5044004;28;20178;-80
2022/05/02 07:47:41;;;;;;;9.77;7.33;;;12.30;99.90;;;;;;5045285;28;20173;-79
2022/05/02 07:50:08;;;;;;;8.10;6.93;;;12.70;99.90;;;;;;5043124;28;20206;-80
2022/05/02 07:52:41;;;;;;;7.50;6.33;;;13.40;99.90;;;;;;5042369;28;20194;-80
2022/05/02 07:55:07;;;;;;;7.93;6.17;;;14.30;99.90;;;;;;5043138;28;20174;-80
2022/05/02 07:57:37;;;;;;;6.13;5.53;;;14.50;99.90;;;;;;5043442;28;20579;-80
2022/05/02 08:00:05;;;;;;;6.87;5.67;;;14.80;99.90;;;;;;5041571;28;20211;-80
2022/05/02 08:02:31;;;;;;;5.73;4.47;;;15.10;99.90;;;;;;5041967;28;20194;-80
2022/05/02 08:04:57;;;;;;;5.03;3.77;;;15.80;99.90;;;;;;5041868;28;20178;-80
2022/05/02 08:07:32;;;;;;;3.87;3.47;;;16.40;99.90;;;;;;5042185;28;20178;-80
2022/05/02 08:10:17;;;;;;;4.07;3.23;;;17.20;99.90;;;;;;5043181;28;20181;-80
2022/05/02 08:12:56;;;;;;;4.07;3.50;;;17.10;99.90;;;;;;5044034;28;20269;-80
2022/05/02 08:15:27;;;;;;;3.80;3.40;;;17.40;99.90;;;;;;5043492;28;20228;-81
2022/05/02 08:18:19;;;;;;;4.00;3.60;;;17.60;99.90;;;;;;5042954;28;20220;-79
2022/05/02 08:21:13;;;;;;;4.03;3.63;;;17.50;99.90;;;;;;5041853;28;20202;-80
2022/05/02 08:27:22;;;;;;;4.37;3.67;;;18.00;99.90;;;;;;5043542;28;20165;-81
2022/05/02 08:30:07;;;;;;;3.70;3.40;;;18.10;99.90;;;;;;5042893;28;20252;-80
2022/05/02 08:33:00;;;;;;;5.23;3.90;;;18.50;99.90;;;;;;5042952;28;20259;-79
2022/05/02 08:35:45;;;;;;;5.80;3.87;;;18.40;99.90;;;;;;5041469;28;20200;-80
2022/05/02 08:38:28;;;;;;;5.93;3.93;;;18.90;99.90;;;;;;5043155;28;20174;-79
2022/05/02 08:41:36;;;;;;;3.70;3.40;;;18.90;99.90;;;;;;5042574;28;20179;-79
2022/05/02 08:44:24;;;;;;;4.63;4.23;;;19.20;99.90;;;;;;5041047;28;20645;-80
2022/05/02 08:47:12;;;;;;;5.33;3.63;;;19.00;99.90;;;;;;5042536;28;20161;-80
2022/05/02 08:50:05;;;;;;;4.37;4.07;;;18.60;99.90;;;;;;5041614;28;20204;-80
2022/05/02 08:52:56;;;;;;;4.83;4.33;;;18.50;99.90;;;;;;5042392;28;20203;-80
2022/05/02 08:55:44;;;;;;;6.90;4.20;;;18.80;99.90;;;;;;5022753;28;20240;-80
2022/05/02 08:58:31;;;;;;;3.67;3.37;;;18.30;99.90;;;;;;5041147;28;20661;-80
2022/05/02 09:00:56;;;;;;;4.33;3.63;;;18.40;99.90;;;;;;5041645;28;20578;-79
2022/05/02 09:04:13;;;;;;;5.43;4.10;;;18.20;99.90;;;;;;5040940;28;20230;-80
2022/05/02 09:06:57;;;;;;;5.23;4.73;;;17.10;99.90;;;;;;5042511;28;20263;-80
2022/05/02 09:09:26;;;;;;;6.00;5.13;;;17.40;99.90;;;;;;5043484;28;20284;-80
2022/05/02 09:12:16;;;;;;;5.30;4.80;;;18.10;99.90;;;;;;5041380;28;20204;-80
2022/05/02 09:15:10;;;;;;;6.23;5.60;;;18.40;99.90;;;;;;5050481;28;20171;-80
2022/05/02 09:17:51;;;;;;;6.83;6.10;;;18.40;99.90;;;;;;5049103;28;20188;-80
2022/05/02 09:20:28;;;;;;;6.87;6.00;;;18.30;99.90;;;;;;5048192;28;20631;-79
2022/05/02 09:23:27;;;;;;;6.23;5.63;;;18.10;99.90;;;;;;5040456;28;20224;-79
2022/05/02 09:26:29;;;;;;;5.57;5.07;;;17.80;99.90;;;;;;5040413;28;20183;-80
2022/05/02 09:29:04;;;;;;;4.90;4.40;;;18.30;99.90;;;;;;5037746;28;20182;-80
2022/05/02 09:31:44;;;;;;;5.07;4.57;;;17.90;99.90;;;;;;5037963;28;20200;-80
2022/05/02 09:34:18;;;;;;;5.30;4.80;;;17.90;99.90;;;;;;5037663;28;20667;-81
2022/05/02 09:37:03;;;;;;;5.13;4.73;;;17.60;99.90;;;;;;5037641;28;20189;-79
2022/05/02 09:39:52;;;;;;;7.83;4.43;;;16.70;99.90;;;;;;5037008;28;20210;-79
2022/05/02 09:42:39;;;;;;;5.13;4.63;;;16.10;99.90;;;;;;5038617;28;20205;-80
2022/05/02 09:52:14;;;;;;;4.70;3.93;;;18.80;99.90;;;;;;5034925;28;20202;-80
2022/05/02 09:58:30;;;;;;;5.30;4.77;;;19.10;99.90;;;;;;5036826;28;20651;-80
2022/05/02 10:01:06;;;;;;;4.30;3.90;;;18.60;99.90;;;;;;5034787;28;20237;-80
2022/05/02 10:03:38;;;;;;;6.43;4.00;;;18.20;99.90;;;;;;5035227;28;20194;-79
2022/05/02 10:06:06;;;;;;;4.10;3.70;;;17.90;99.90;;;;;;5034281;28;20193;-80
2022/05/02 10:08:38;;;;;;;4.00;3.40;;;17.60;99.90;;;;;;5034301;28;20182;-80
2022/05/02 10:11:20;;;;;;;3.90;3.50;;;17.90;99.90;;;;;;5041831;28;20182;-79
2022/05/02 10:14:04;;;;;;;4.13;3.30;;;17.50;99.90;;;;;;5036766;28;20511;-80
2022/05/02 10:16:55;;;;;;;3.63;3.33;;;17.10;99.90;;;;;;5038335;28;20679;-79
2022/05/02 10:19:43;;;;;;;5.47;3.53;;;18.00;99.90;;;;;;5036282;28;20186;-80
2022/05/02 10:22:24;;;;;;;3.40;3.10;;;18.60;99.60;;;;;;5037164;28;20205;-80
2022/05/02 10:25:13;;;;;;;3.33;3.03;;;18.70;99.60;;;;;;5038074;28;20185;-80
2022/05/02 10:28:05;;;;;;;3.20;2.80;;;17.80;97.30;;;;;;5037923;28;20174;-79
2022/05/02 10:30:46;;;;;;;4.03;3.47;;;17.90;98.90;;;;;;5037172;28;20273;-80
2022/05/02 10:33:21;;;;;;;3.37;3.07;;;18.30;99.90;;;;;;5038035;28;20198;-80
2022/05/02 10:35:50;;;;;;;5.83;2.40;;;17.90;98.90;;;;;;5037557;28;20204;-80
2022/05/02 10:38:27;;;;;;;3.40;3.03;;;17.90;97.90;;;;;;5038982;28;20532;-80
2022/05/02 10:41:14;;;;;;;5.00;2.80;;;18.50;97.60;;;;;;5037497;28;20229;-80
2022/05/02 10:43:49;;;;;;;4.70;3.10;;;19.30;97.30;;;;;;5040592;28;20173;-80
2022/05/02 10:46:16;;;;;;;3.50;3.20;;;19.40;97.00;;;;;;5039269;28;20162;-80
2022/05/02 10:49:02;;;;;;;3.63;3.10;;;19.40;98.30;;;;;;5039702;28;20174;-80
2022/05/02 10:52:07;;;;;;;3.27;2.97;;;19.70;95.80;;;;;;5039328;28;20186;-80
2022/05/02 10:54:46;;;;;;;3.10;2.80;;;19.90;95.00;;;;;;5038674;28;20188;-80
2022/05/02 10:57:30;;;;;;;3.10;2.80;;;19.70;93.30;;;;;;5037763;28;20617;-80
2022/05/02 11:00:04;;;;;;;2.90;2.70;;;19.90;92.30;;;;;;5039221;28;20204;-80
2022/05/02 11:02:58;;;;;;;5.53;4.10;;;19.90;92.30;;;;;;5040777;28;20725;-81
2022/05/02 11:05:33;;;;;;;4.13;3.83;;;20.10;94.00;;;;;;5042458;28;20176;-80
2022/05/02 11:08:12;;;;;;;3.90;3.43;;;19.00;94.50;;;;;;5042041;28;20183;-80
2022/05/02 11:10:52;;;;;;;3.30;3.00;;;19.40;95.90;;;;;;5041401;28;20176;-81
2022/05/02 11:13:46;;;;;;;3.50;3.03;;;19.80;93.60;;;;;;5040854;28;20209;-81
2022/05/02 11:16:30;;;;;;;3.10;2.80;;;20.60;94.70;;;;;;5040481;28;20519;-81
2022/05/02 11:22:08;;;;;;;3.20;2.90;;;21.50;90.90;;;;;;5044662;28;20231;-80
2022/05/02 11:24:56;;;;;;;2.83;2.53;;;22.00;88.50;;;;;;5045554;28;20224;-81
2022/05/02 11:27:31;;;;;;;3.33;3.00;;;22.00;88.40;;;;;;5046886;28;20247;-81
2022/05/02 11:30:02;;;;;;;3.20;2.90;;;21.60;84.90;;;;;;5048247;28;20210;-80
2022/05/02 11:33:17;;;;;;;3.10;2.90;;;21.90;86.40;;;;;;5047087;28;20199;-80
2022/05/02 11:35:48;;;;;;;3.60;3.30;;;21.80;86.10;;;;;;5048061;28;20177;-81
2022/05/02 11:38:42;;;;;;;3.80;3.40;;;21.90;87.20;;;;;;5047665;28;20170;-80
2022/05/02 11:41:15;;;;;;;3.63;3.33;;;21.90;88.20;;;;;;5045152;28;20195;-80
2022/05/02 11:43:43;;;;;;;4.80;3.70;;;21.50;86.90;;;;;;5046545;28;20753;-80
2022/05/02 11:46:23;;;;;;;5.50;4.10;;;20.70;86.10;;;;;;5045121;28;20171;-81
2022/05/02 11:48:55;;;;;;;4.90;4.50;;;21.00;90.10;;;;;;5043158;28;20174;-80
2022/05/02 11:51:32;;;;;;;4.13;3.77;;;21.30;85.40;;;;;;5043510;28;20181;-81
2022/05/02 11:54:01;;;;;;;12.50;5.00;;;20.50;82.50;;;;;;5044095;28;20172;-80
2022/05/02 11:56:36;;;;;;;4.50;3.43;;;20.00;86.00;;;;;;5045025;28;20182;-81
2022/05/02 11:59:12;;;;;;;9.27;4.37;;;20.70;87.00;;;;;;5040695;28;20177;-80
2022/05/02 12:01:41;;;;;;;10.43;3.70;;;21.20;86.40;;;;;;5041779;28;20211;-81
2022/05/02 12:04:08;;;;;;;4.30;3.20;;;22.30;85.40;;;;;;5042704;28;20179;-80
2022/05/02 12:07:05;;;;;;;3.70;3.37;;;23.10;84.40;;;;;;5040465;28;20175;-80
2022/05/02 12:09:34;;;;;;;5.33;3.60;;;22.70;77.90;;;;;;5041526;28;20651;-79
2022/05/02 12:12:07;;;;;;;5.30;3.60;;;20.90;79.30;;;;;;5044919;28;20197;-81
2022/05/02 12:14:33;;;;;;;4.80;4.00;;;20.20;84.80;;;;;;5046101;28;20156;-80
2022/05/02 12:17:06;;;;;;;4.20;3.80;;;19.80;85.80;;;;;;5045963;28;20184;-78
2022/05/02 12:19:33;;;;;;;4.60;3.67;;;19.90;86.20;;;;;;5043438;28;20201;-79
2022/05/02 12:22:13;;;;;;;4.67;4.23;;;19.60;86.40;;;;;;5043088;28;20193;-79
2022/05/02 12:24:43;;;;;;;5.57;5.00;;;19.10;86.70;;;;;;5040615;28;20186;-78
2022/05/02 12:27:09;;;;;;;5.03;4.53;;;18.60;90.10;;;;;;5039476;28;20529;-79
2022/05/02 12:29:36;;;;;;;6.47;4.97;;;20.10;86.40;;;;;;5040907;28;20312;-80
2022/05/02 12:32:05;;;;;;;6.57;5.50;;;21.70;83.90;;;;;;5043596;28;20196;-80
2022/05/02 12:34:38;;;;;;;7.07;5.47;;;22.00;81.90;;;;;;5041185;28;20175;-80
2022/05/02 12:37:26;;;;;;;5.73;5.13;;;20.30;82.70;;;;;;5038850;28;20186;-81
2022/05/02 12:40:05;;;;;;;5.50;5.00;;;19.10;85.50;;;;;;5032856;28;20217;-80
2022/05/02 12:42:40;;;;;;;5.50;4.93;;;18.40;90.10;;;;;;5038501;28;20190;-80
2022/05/02 12:45:08;;;;;;;6.40;4.80;;;18.80;90.60;;;;;;5038462;28;20162;-80
2022/05/02 12:47:40;;;;;;;6.67;5.83;;;19.60;89.60;;;;;;5038598;28;20213;-80
2022/05/02 12:50:07;;;;;;;6.47;5.87;;;19.70;90.40;;;;;;5037774;28;20256;-79
2022/05/02 12:52:35;;;;;;;6.33;5.63;;;20.50;91.30;;;;;;5038229;28;20205;-80
2022/05/02 12:55:01;;;;;;;8.30;4.97;;;20.50;86.10;;;;;;5039351;28;20178;-79
2022/05/02 13:00:40;;;;;;;6.57;5.10;;;19.50;89.40;;;;;;5036834;28;20285;-81
2022/05/02 13:03:17;;;;;;;5.77;4.50;;;20.60;89.80;;;;;;5039102;28;20186;-80
2022/05/02 13:05:46;;;;;;;5.43;4.93;;;22.30;86.90;;;;;;5041008;28;20177;-80
2022/05/02 13:08:17;;;;;;;8.47;5.00;;;22.70;83.20;;;;;;5040440;28;20166;-80
2022/05/02 13:10:44;;;;;;;5.03;4.63;;;22.30;82.50;;;;;;5037024;28;20179;-79
2022/05/02 13:13:15;;;;;;;5.70;5.20;;;22.40;81.20;;;;;;5037066;28;20218;-80
2022/05/02 13:15:45;;;;;;;5.20;4.70;;;22.30;81.80;;;;;;5039707;28;20166;-78
2022/05/02 13:18:14;;;;;;;5.23;4.00;;;21.70;81.10;;;;;;5040720;28;20162;-80
2022/05/02 13:20:41;;;;;;;4.77;4.27;;;21.90;84.70;;;;;;5040133;28;20203;-79
2022/05/02 13:23:13;;;;;;;6.07;4.53;;;22.60;80.80;;;;;;5042000;28;20194;-80
2022/05/02 13:25:57;;;;;;;6.53;4.77;;;22.70;78.50;;;;;;5039970;28;20165;-80
2022/05/02 13:28:25;;;;;;;4.80;4.33;;;23.30;77.00;;;;;;5041793;28;20172;-81
2022/05/02 13:31:11;;;;;;;6.23;4.30;;;23.20;77.60;;;;;;5045899;28;20181;-80
2022/05/02 13:33:43;;;;;;;6.67;3.53;;;23.30;76.80;;;;;;5043364;28;20158;-80
2022/05/02 13:36:09;;;;;;;4.50;3.60;;;22.80;76.00;;;;;;5041486;28;20163;-81
2022/05/02 13:38:46;;;;;;;3.50;3.20;;;23.10;76.70;;;;;;5042142;28;20192;-80
2022/05/02 13:41:30;;;;;;;3.60;3.30;;;24.00;72.30;;;;;;5041974;28;20188;-80
2022/05/02 13:44:25;;;;;;;4.07;3.43;;;23.90;69.70;;;;;;5043526;28;20214;-80
2022/05/02 13:46:59;;;;;;;3.40;3.10;;;23.40;71.80;;;;;;5006834;28;20191;-80